【METAR】 空港の天気 【TAF】 [無断転載禁止]©2ch.net

1名無しSUN2016/05/30(月) 23:17:28.89ID:SlFWcLbl
ここで調べて近くの空港の天気を貼りつけましょう

空港の天気
https://www.time-j.net/Metar/Japan

METARの読み方
https://www.time-j.net/Metar/HowToRead

197名無しSUN2017/08/08(火) 21:19:52.85ID:IBBGRqqP
08/08 20:00
METAR RJNA 081100Z 29012G22KT 9999 FEW050 28/23 Q0995 RMK 1SC050
A2941=

29012G22KT ・・・・北から時計回りに290度(西北西)の風12ノット(6m/s) G(最大風速)22ノット(11m/s)

198名無しSUN2017/08/09(水) 20:42:28.60ID:s0kYT5Rk
08/09 20:00
METAR RJNA 091100Z 30006KT 270V330 9999 FEW030 BKN/// 31/21 Q0996 RMK
1CU030 A2944=

199名無しSUN2017/08/10(木) 21:00:07.04ID:tudwQhxv
08/10 20:19
RJNA 101119Z 15011KT 2000 R34/0500VP1800D +TSRA FEW008 BKN010
BKN025CB 27/26 Q1000 RMK 1ST008 5CU010 7CB025 A2953 R0800
VIS SW 1500M MOD TS OHD MOV E RI++=

VIS SW 1500M MOD TS OHD MOV E 視程南西1500m 並の(MOD)雷雨(TS)上空から(OHD)東へ(E)動く(MOV)

200名無しSUN2017/08/16(水) 22:03:55.69ID:WJc2m8lH
08/16 21:00
METAR RJNA 161200Z 24006KT 200V290 9999 FEW015 SCT030 BKN050 27/24
Q1006 RMK 1CU015 3CU030 7SC050 A2971=

201名無しSUN2017/08/17(木) 20:45:34.64ID:zcBY0/Bx
08/17 20:00
METAR RJNA 171100Z 16010KT 9999 FEW030 SCT/// 28/23 Q1008 RMK 1CU030
A2979 LIGHTNING W=

202名無しSUN2017/08/18(金) 22:08:21.84ID:oTJbco5m
08/18 22:00
METAR RJNA 181300Z 15003KT 9999 TS FEW015 SCT025CB BKN045 27/26 Q1009
RERA RMK 2CU015 4CB025 7SC045 A2981 FBL TS OHD=

RERA・・・Recent Rain(最近雨が降った)

203名無しSUN2017/08/21(月) 21:29:58.57ID:sveWbpIW
08/21 21:00
METAR RJNA 211200Z 16009KT 130V190 9999 FEW020 BKN/// 29/24 Q1013 RMK
1CU020 A2994=

204名無しSUN2017/08/22(火) 20:12:37.53ID:pGbVj/DX
08/22 19:00
METAR RJNA 221000Z 08004KT 050V110 9999 FEW010 SCT030 BKN040 25/23
Q1013 RETS RMK 1CU010 3CU030 5SC040 A2994=

RETS・・・Recent Thunder Storm

205名無しSUN2017/08/24(木) 22:13:21.80ID:9LEARvG1
08/24 21:00
METAR RJNA 241200Z VRB01KT 9999 FEW050 32/22 Q1007 RMK 1SC050 A2975=

夜なのに32度もある
32/22 気温32度 露点温度22度 湿度56%

206名無しSUN2017/08/28(月) 20:20:25.25ID:gmVLVjZn
08/28 20:00
METAR RJNA 281100Z 22004KT 200V260 9999 FEW030 BKN100 BKN/// 28/24
Q1011 RMK 1CU030 5AC100 A2988=

207名無しSUN2017/08/29(火) 20:27:38.95ID:FTABe1kA
08/29 20:00
METAR RJNA 291100Z 18005KT 9999 FEW030 BKN/// 30/25 Q1008 RMK 1CU030
A2979=

208名無しSUN2017/08/30(水) 21:59:19.45ID:J5ovfgXN
08/30 21:00
METAR RJNA 301200Z 32008KT 9999 FEW/// 27/18 Q1006 RMK A2973=

27/18 ・・・気温27度 露点温度18度 湿度58%

209名無しSUN2017/08/31(木) 22:08:54.90ID:w9ZL9l+j
08/31 21:00
METAR RJNA 311200Z 31011KT 9999 FEW040 26/15 Q1002 RMK 1CU040 A2961=

26/15 ・・・気温26度 露点温度15度 湿度51%

210名無しSUN2017/09/01(金) 22:09:32.41ID:y3nJeBqk
09/01 22:00
METAR RJNA 011300Z 31009KT 9999 FEW030 SCT180 BKN/// 25/17 Q1005 RMK
1CU030 3AC180 A2968=

211名無しSUN2017/09/05(火) 21:52:18.29ID:lVSJrfkZ
09/05 21:00
METAR RJNA 051200Z 30003KT 270V330 9999 -RA FEW020 BKN040 OVC070
25/22 Q1012 RMK 2CU020 5SC040 8AS070 A2989=

OVC070・・・オーバークラウド 7000フィート(2100m)

212名無しSUN2017/09/06(水) 21:29:52.48ID:BSvPwgnt
09/06 21:00
METAR RJNA 061200Z VRB02KT 9999 FEW020 BKN080 25/22 Q1007 RMK 1CU020
6AC080 A2974=

213名無しSUN2017/09/08(金) 20:30:44.12ID:dV6Emrse
09/08 20:00
METAR RJNA 081100Z 31009KT 9999 FEW050 26/18 Q1007 RMK 1SC050 A2976=

214名無しSUN2017/09/11(月) 20:43:31.67ID:nCmpUJDc
09/11 20:00
METAR RJNA 111100Z 13014KT 090V160 9999 FEW020 SCT030 BKN050 26/20
Q1011 RMK 1CU020 3CU030 6SC050 A2988 MAX WIND 21KT=

MAX WIND 21KT・・・最大風速21ノット(11m/s)

215名無しSUN2017/09/12(火) 20:52:02.58ID:s8UrVO1Q
09/12 20:00
METAR RJNA 121100Z 27007KT 9999 FEW030 SCT100 BKN/// 25/21 Q1010 RMK
1CU030 3AC100 A2985=

216名無しSUN2017/09/13(水) 21:09:49.08ID:ZrQ+Nv9a
09/13 20:00
METAR RJNA 131100Z 29010KT 9999 FEW030 BKN/// 27/16 Q1014 RMK 1CU030
A2997=

217名無しSUN2017/09/14(木) 21:03:28.65ID:JXkGEEdC
09/14 20:00
METAR RJNA 141100Z 31012KT 9999 FEW180 BKN/// 24/14 Q1015 RMK 1AC180
A2998=

218名無しSUN2017/09/15(金) 20:47:05.90ID:ezD+jDwU
09/15 20:00
METAR RJNA 151100Z 36003KT 9999 FEW030 BKN/// 24/15 Q1016 RMK 1CU030
A3002=

219名無しSUN2017/09/19(火) 21:32:15.10ID:904XcOlk
09/19 21:00
METAR RJNA 191200Z 04004KT 9999 FEW030 BKN/// 24/19 Q1010 RMK 1CU030
A2985=

220名無しSUN2017/09/20(水) 20:47:11.70ID:JKYkWTU4
09/20 20:00
METAR RJNA 201100Z 33003KT 290V020 7000 FEW020 SCT100 BKN170 22/20
Q1009 RMK 2CU020 3AC100 7AC170 A2981=

221名無しSUN2017/09/21(木) 21:37:50.48ID:AJ1iOYiz
09/21 21:00
METAR RJNA 211200Z 32004KT 280V350 9999 FEW030 BKN/// 22/16 Q1013 RMK
1CU030 A2993=

222名無しSUN2017/09/22(金) 22:07:53.41ID:7mPLeILp
09/22 21:00
METAR RJNA 221200Z 34006KT 8000 FEW015 BKN045 BKN100 20/20 Q1013 RMK
1CU015 5SC045 7AC100 A2994=

223名無しSUN2017/09/25(月) 20:44:42.21ID:cL/bdbHk
09/25 20:00
METAR RJNA 251100Z 21003KT 9999 FEW030 25/15 Q1014 RMK 1CU030 A2995=

224名無しSUN2017/09/26(火) 20:31:45.45ID:XZ/tVY2A
09/26 20:00
METAR RJNA 261100Z 16007KT 9999 FEW030 BKN/// 25/21 Q1013 RMK 1CU030
A2994=

225名無しSUN2017/09/27(水) 20:52:51.40ID:VoUg11Zs
09/27 20:00
METAR RJNA 271100Z VRB02KT 8000 -RA FEW020 BKN040 BKN100 23/20 Q1008
RMK 1SC020 5SC040 7AS100 A2977=

226名無しSUN2017/09/28(木) 20:37:45.72ID:wYxJFM1M
09/28 20:00
METAR RJNA 281100Z 31006KT 9999 FEW030 SCT100 20/12 Q1005 RMK 1CU030
3AC100 A2968=

227名無しSUN2017/09/29(金) 20:14:01.60ID:NAf1loWG
09/29 19:00
METAR RJNA 291000Z 32009KT 9999 FEW050 SCT/// 23/10 Q1015 RMK 1SC050
A2997=

228名無しSUN2017/10/02(月) 20:54:42.61ID:ehIEoOJ+
10/02 20:14
RJNA 021114Z VRB01KT 3000 R34/1000VP1800D SHRA BR FEW006
SCT010 BKN015 19/19 Q1012 RMK 2ST006 3CU010 5CU015 A2990
R1200=

2ST006 全天の2/8のST(霧雲)が600フィート(180m)にある
3CU010 全天の3/8のCU(積雲)が1000フィート(300m)にある
5CU015 全天の5/8のCU(積雲)が1500フィート(450m)にある

229名無しSUN2017/10/03(火) 20:38:55.93ID:sDGeoa+v
10/03 20:00
METAR RJNA 031100Z 32012KT 9999 FEW030 22/13 Q1011 RMK 1CU030 A2987=

230名無しSUN2017/10/05(木) 20:58:43.12ID:fouS+cTe
10/05 20:00
METAR RJNA 051100Z 21003KT 180V240 9999 FEW030 BKN180 BKN/// 20/12
Q1026 RMK 1CU030 5AC180 A3031=

231名無しSUN2017/10/06(金) 20:26:39.99ID:CcEYoSVH
10/06 19:37
RJNA 061037Z VRB02KT 8000 -RA FEW008 SCT015 BKN050 15/15 Q1021
RMK 2ST008 4SC015 7SC050 A3015 VIS S-SW 10KM=

2ST008 全天の2/8のST(層雲・霧雲)が800フィート(240m)にある
4SC015 全天の4/8のSC(層積雲)が1500フィート(450m)にある
7SC050 全天の7/8のSC(層積雲)が5000フィート(1500m)にある

232名無しSUN2017/10/10(火) 21:54:22.22ID:ckgo8ZVi
10/10 21:00
METAR RJNA 101200Z 33006KT 9999 FEW150 23/17 Q1016 RMK 1AC150 A3001=

233名無しSUN2017/10/11(水) 21:49:07.77ID:YDyA9oT+
10/11 21:00
METAR RJNA 111200Z 28003KT 240V300 9999 FEW/// 26/20 Q1014 RMK A2997=

234名無しSUN2017/10/12(木) 20:30:24.44ID:lfiZFSuk
10/12 20:00
METAR RJNA 121100Z 32008KT 9999 FEW020 BKN060 BKN100 21/16 Q1013 RMK
1CU020 5SC060 6AC100 A2994=

235名無しSUN2017/10/13(金) 21:52:33.06ID:CnRaLZZY
10/13 21:10
RJNA 131210Z 28002KT 9999 -SHRA FEW010 SCT025 BKN080 19/16
Q1017 RMK 1CU010 3CU025 7AC080 A3004=

236名無しSUN2017/10/16(月) 21:33:19.10ID:ggHbUbZR
10/16 21:00
METAR RJNA 161200Z 34007KT 8000 -RA FEW008 BKN050 BKN070 15/14 Q1023
RMK 1ST008 5SC050 7AS070 A3022=

237名無しSUN2017/10/18(水) 20:59:22.21ID:Y7vQ47Bc
10/18 20:03
RJNA 181103Z VRB01KT 9999 -RA FEW025 BKN040 BKN080 18/11 Q1021
RMK 1CU025 6SC040 7AC080 A3016=

238名無しSUN2017/10/19(木) 21:27:10.50ID:ibFzQGXI
10/19 21:00
METAR RJNA 191200Z 34004KT 9999 FEW006 BKN030 BKN050 16/14 Q1015 RMK
1ST006 5SC030 7SC050 A2999=

239名無しSUN2017/10/20(金) 21:05:17.62ID:tUTiQc6/
10/20 20:00
METAR RJNA 201100Z 36003KT 320V030 9999 FEW008 BKN040 BKN080 18/16
Q1015 RMK 1ST008 5SC040 7AC080 A2998=

240名無しSUN2017/10/23(月) 21:37:50.95ID:cwpWbQll
10/23 21:00
METAR RJNA 231200Z 32014KT 9999 FEW050 SCT100 BKN/// 15/08 Q1013 RMK
1SC050 4AC100 A2993=

241名無しSUN2017/10/24(火) 21:49:25.46ID:NtfLDFCZ
10/24 21:00
METAR RJNA 241200Z 33004KT 9999 -SHRA FEW030 BKN060 16/10 Q1020 RMK
2CU030 7SC060 A3012=

242名無しSUN2017/10/27(金) 21:18:08.48ID:FD5Wvpfx
10/27 21:00
METAR RJNA 271200Z VRB02KT 9999 SCT180 BKN/// 16/13 Q1021 RMK 3AC180
A3016=

243名無しSUN2017/10/31(火) 22:10:07.36ID:vVDMDUxk
10/31 22:00
METAR RJNA 311300Z 00000KT 9999 FEW/// 11/05 Q1023 RMK A3022=

寒くなった

244名無しSUN2017/11/03(金) 21:18:25.89ID:bRKf+Jm0
11/03 21:00
METAR RJNA 031200Z 01003KT 9999 FEW030 SCT180 BKN/// 18/12 Q1014 RMK
1CU030 3AC180 A2997=

245名無しSUN2017/11/07(火) 22:43:57.38ID:CGgjAVv9
11/07 22:00
METAR RJNA 071300Z 00000KT 9999 FEW030 BKN050 BKN170 17/14 Q1020 RMK
1CU030 5SC050 7AC170 A3015=

246名無しSUN2017/11/15(水) 21:45:48.18ID:u3OwlrUG
11/15 21:00
METAR RJNA 151200Z 29003KT 9999 FEW050 12/05 Q1015 RMK 1SC050 A2999=

247名無しSUN2017/11/17(金) 20:18:17.23ID:gBGGSs17
11/17 20:00
METAR RJNA 171100Z VRB02KT 9999 FEW025 BKN190 10/05 Q1019 RMK 1CU025
7AC190 A3012=

新着レスの表示
レスを投稿する